sensor_id;sensor_type;location;lat;lon;timestamp;P1;durP1;ratioP1;P2;durP2;ratioP2
67819;SDS011;54618;52.018;5.576;2022-08-05T00:01:39;2.72;;;1.80;;
67819;SDS011;54618;52.018;5.576;2022-08-05T00:04:04;3.75;;;1.90;;
67819;SDS011;54618;52.018;5.576;2022-08-05T00:06:30;3.83;;;1.63;;
67819;SDS011;54618;52.018;5.576;2022-08-05T00:08:56;3.45;;;1.50;;
67819;SDS011;54618;52.018;5.576;2022-08-05T00:11:22;2.70;;;1.80;;
67819;SDS011;54618;52.018;5.576;2022-08-05T00:13:47;3.65;;;1.60;;
67819;SDS011;54618;52.018;5.576;2022-08-05T00:16:14;3.67;;;1.80;;
67819;SDS011;54618;52.018;5.576;2022-08-05T00:18:41;2.97;;;1.60;;
67819;SDS011;54618;52.018;5.576;2022-08-05T00:21:09;4.20;;;1.88;;
67819;SDS011;54618;52.018;5.576;2022-08-05T00:23:35;2.83;;;1.90;;
67819;SDS011;54618;52.018;5.576;2022-08-05T00:26:02;4.35;;;2.00;;
67819;SDS011;54618;52.018;5.576;2022-08-05T00:28:28;3.65;;;1.83;;
67819;SDS011;54618;52.018;5.576;2022-08-05T00:30:53;4.70;;;1.90;;
67819;SDS011;54618;52.018;5.576;2022-08-05T00:33:19;3.53;;;2.10;;
67819;SDS011;54618;52.018;5.576;2022-08-05T00:35:44;3.78;;;1.88;;
67819;SDS011;54618;52.018;5.576;2022-08-05T00:38:10;4.28;;;1.73;;
67819;SDS011;54618;52.018;5.576;2022-08-05T00:40:44;5.20;;;1.92;;
67819;SDS011;54618;52.018;5.576;2022-08-05T00:43:14;5.70;;;1.85;;
67819;SDS011;54618;52.018;5.576;2022-08-05T00:45:40;4.78;;;2.10;;
67819;SDS011;54618;52.018;5.576;2022-08-05T00:48:08;4.78;;;2.30;;
67819;SDS011;54618;52.018;5.576;2022-08-05T00:50:34;5.43;;;2.10;;
67819;SDS011;54618;52.018;5.576;2022-08-05T00:53:00;5.03;;;1.90;;
67819;SDS011;54618;52.018;5.576;2022-08-05T00:55:25;4.95;;;1.90;;
67819;SDS011;54618;52.018;5.576;2022-08-05T00:57:51;4.75;;;1.83;;
67819;SDS011;54618;52.018;5.576;2022-08-05T01:00:16;4.15;;;1.80;;
67819;SDS011;54618;52.018;5.576;2022-08-05T01:02:42;5.63;;;1.90;;
67819;SDS011;54618;52.018;5.576;2022-08-05T01:05:09;4.40;;;1.90;;
67819;SDS011;54618;52.018;5.576;2022-08-05T01:07:34;4.78;;;2.00;;
67819;SDS011;54618;52.018;5.576;2022-08-05T01:10:00;3.85;;;1.90;;
67819;SDS011;54618;52.018;5.576;2022-08-05T01:12:26;4.03;;;1.85;;
67819;SDS011;54618;52.018;5.576;2022-08-05T01:20:08;3.30;;;1.90;;
67819;SDS011;54618;52.018;5.576;2022-08-05T01:28:38;4.18;;;1.77;;
67819;SDS011;54618;52.018;5.576;2022-08-05T01:31:23;2.90;;;1.95;;
67819;SDS011;54618;52.018;5.576;2022-08-05T01:34:16;4.97;;;1.80;;
67819;SDS011;54618;52.018;5.576;2022-08-05T01:36:54;5.50;;;1.80;;
67819;SDS011;54618;52.018;5.576;2022-08-05T01:39:26;4.72;;;1.90;;
67819;SDS011;54618;52.018;5.576;2022-08-05T01:41:55;3.22;;;1.75;;
67819;SDS011;54618;52.018;5.576;2022-08-05T01:44:22;5.78;;;2.13;;
67819;SDS011;54618;52.018;5.576;2022-08-05T01:46:50;5.20;;;2.22;;
67819;SDS011;54618;52.018;5.576;2022-08-05T01:49:19;4.97;;;2.00;;
67819;SDS011;54618;52.018;5.576;2022-08-05T01:51:46;3.55;;;1.90;;
67819;SDS011;54618;52.018;5.576;2022-08-05T01:54:13;4.30;;;2.03;;
67819;SDS011;54618;52.018;5.576;2022-08-05T01:56:41;4.47;;;1.95;;
67819;SDS011;54618;52.018;5.576;2022-08-05T01:59:08;8.20;;;1.90;;
67819;SDS011;54618;52.018;5.576;2022-08-05T02:01:37;6.25;;;1.90;;
67819;SDS011;54618;52.018;5.576;2022-08-05T02:04:04;5.22;;;2.05;;
67819;SDS011;54618;52.018;5.576;2022-08-05T02:06:31;3.28;;;1.88;;
67819;SDS011;54618;52.018;5.576;2022-08-05T02:08:57;4.95;;;2.17;;
67819;SDS011;54618;52.018;5.576;2022-08-05T02:11:23;4.40;;;1.90;;
67819;SDS011;54618;52.018;5.576;2022-08-05T02:14:10;3.35;;;1.80;;
67819;SDS011;54618;52.018;5.576;2022-08-05T02:16:44;3.53;;;1.75;;
67819;SDS011;54618;52.018;5.576;2022-08-05T02:19:12;3.08;;;1.77;;
67819;SDS011;54618;52.018;5.576;2022-08-05T02:21:52;5.68;;;1.90;;
67819;SDS011;54618;52.018;5.576;2022-08-05T02:24:23;4.57;;;1.70;;
67819;SDS011;54618;52.018;5.576;2022-08-05T02:26:55;5.55;;;1.90;;
67819;SDS011;54618;52.018;5.576;2022-08-05T02:29:25;6.00;;;2.00;;
67819;SDS011;54618;52.018;5.576;2022-08-05T02:31:53;6.00;;;1.83;;
67819;SDS011;54618;52.018;5.576;2022-08-05T02:34:21;5.07;;;2.05;;
67819;SDS011;54618;52.018;5.576;2022-08-05T02:36:50;4.15;;;2.00;;
67819;SDS011;54618;52.018;5.576;2022-08-05T02:39:19;4.13;;;1.77;;
67819;SDS011;54618;52.018;5.576;2022-08-05T02:41:46;3.88;;;1.83;;
67819;SDS011;54618;52.018;5.576;2022-08-05T02:44:13;5.47;;;1.88;;
67819;SDS011;54618;52.018;5.576;2022-08-05T02:46:40;5.30;;;1.70;;
67819;SDS011;54618;52.018;5.576;2022-08-05T02:49:08;4.78;;;1.70;;
67819;SDS011;54618;52.018;5.576;2022-08-05T02:51:35;4.85;;;1.90;;
67819;SDS011;54618;52.018;5.576;2022-08-05T02:54:02;3.38;;;1.70;;
67819;SDS011;54618;52.018;5.576;2022-08-05T02:56:28;3.35;;;1.70;;
67819;SDS011;54618;52.018;5.576;2022-08-05T02:58:54;3.90;;;1.80;;
67819;SDS011;54618;52.018;5.576;2022-08-05T03:01:25;4.47;;;1.98;;
67819;SDS011;54618;52.018;5.576;2022-08-05T03:03:53;4.38;;;1.95;;
67819;SDS011;54618;52.018;5.576;2022-08-05T03:06:22;5.82;;;2.10;;
67819;SDS011;54618;52.018;5.576;2022-08-05T03:08:49;4.97;;;1.77;;
67819;SDS011;54618;52.018;5.576;2022-08-05T03:11:16;3.05;;;1.70;;
67819;SDS011;54618;52.018;5.576;2022-08-05T03:16:12;3.95;;;1.80;;
67819;SDS011;54618;52.018;5.576;2022-08-05T03:18:38;5.65;;;1.73;;
67819;SDS011;54618;52.018;5.576;2022-08-05T03:21:04;4.18;;;1.90;;
67819;SDS011;54618;52.018;5.576;2022-08-05T03:23:29;4.32;;;1.60;;
67819;SDS011;54618;52.018;5.576;2022-08-05T03:25:56;4.43;;;1.63;;
67819;SDS011;54618;52.018;5.576;2022-08-05T03:28:21;5.80;;;1.77;;
67819;SDS011;54618;52.018;5.576;2022-08-05T03:30:47;5.05;;;1.80;;
67819;SDS011;54618;52.018;5.576;2022-08-05T03:33:14;3.25;;;1.48;;
67819;SDS011;54618;52.018;5.576;2022-08-05T03:35:41;3.40;;;1.65;;
67819;SDS011;54618;52.018;5.576;2022-08-05T03:38:10;2.88;;;1.60;;
67819;SDS011;54618;52.018;5.576;2022-08-05T03:40:38;4.90;;;1.75;;
67819;SDS011;54618;52.018;5.576;2022-08-05T03:43:05;4.45;;;1.70;;
67819;SDS011;54618;52.018;5.576;2022-08-05T03:45:30;5.97;;;1.98;;
67819;SDS011;54618;52.018;5.576;2022-08-05T03:47:56;4.18;;;1.60;;
67819;SDS011;54618;52.018;5.576;2022-08-05T03:50:21;6.13;;;2.00;;
67819;SDS011;54618;52.018;5.576;2022-08-05T03:52:49;5.07;;;1.80;;
67819;SDS011;54618;52.018;5.576;2022-08-05T03:55:33;4.35;;;1.60;;
67819;SDS011;54618;52.018;5.576;2022-08-05T03:58:02;3.30;;;1.65;;
67819;SDS011;54618;52.018;5.576;2022-08-05T04:00:33;3.63;;;1.70;;
67819;SDS011;54618;52.018;5.576;2022-08-05T04:03:00;4.53;;;1.63;;
67819;SDS011;54618;52.018;5.576;2022-08-05T04:05:34;4.07;;;1.70;;
67819;SDS011;54618;52.018;5.576;2022-08-05T04:08:02;3.70;;;1.67;;
67819;SDS011;54618;52.018;5.576;2022-08-05T04:10:31;2.92;;;1.60;;
67819;SDS011;54618;52.018;5.576;2022-08-05T04:12:58;4.60;;;1.60;;
67819;SDS011;54618;52.018;5.576;2022-08-05T04:15:27;5.00;;;1.80;;
67819;SDS011;54618;52.018;5.576;2022-08-05T04:17:56;4.13;;;1.60;;
67819;SDS011;54618;52.018;5.576;2022-08-05T04:20:25;2.75;;;1.60;;
67819;SDS011;54618;52.018;5.576;2022-08-05T04:22:50;3.97;;;1.60;;
67819;SDS011;54618;52.018;5.576;2022-08-05T04:25:16;4.50;;;1.75;;
67819;SDS011;54618;52.018;5.576;2022-08-05T04:27:42;3.88;;;1.67;;
67819;SDS011;54618;52.018;5.576;2022-08-05T04:30:08;5.40;;;1.70;;
67819;SDS011;54618;52.018;5.576;2022-08-05T04:32:34;4.60;;;1.85;;
67819;SDS011;54618;52.018;5.576;2022-08-05T04:34:59;5.05;;;1.77;;
67819;SDS011;54618;52.018;5.576;2022-08-05T04:37:25;3.72;;;1.80;;
67819;SDS011;54618;52.018;5.576;2022-08-05T04:39:51;5.43;;;1.80;;
67819;SDS011;54618;52.018;5.576;2022-08-05T04:42:16;4.55;;;1.60;;
67819;SDS011;54618;52.018;5.576;2022-08-05T04:44:42;4.43;;;1.73;;
67819;SDS011;54618;52.018;5.576;2022-08-05T04:47:07;3.83;;;1.70;;
67819;SDS011;54618;52.018;5.576;2022-08-05T04:49:33;5.70;;;1.70;;
67819;SDS011;54618;52.018;5.576;2022-08-05T04:51:58;5.07;;;1.85;;
67819;SDS011;54618;52.018;5.576;2022-08-05T04:54:24;3.13;;;1.73;;
67819;SDS011;54618;52.018;5.576;2022-08-05T04:56:54;3.08;;;1.60;;
67819;SDS011;54618;52.018;5.576;2022-08-05T04:59:20;6.15;;;1.70;;
67819;SDS011;54618;52.018;5.576;2022-08-05T05:01:47;4.18;;;2.10;;
67819;SDS011;54618;52.018;5.576;2022-08-05T05:04:13;4.85;;;2.22;;
67819;SDS011;54618;52.018;5.576;2022-08-05T05:06:38;3.67;;;1.60;;
67819;SDS011;54618;52.018;5.576;2022-08-05T05:09:04;4.18;;;1.70;;
67819;SDS011;54618;52.018;5.576;2022-08-05T05:11:30;3.47;;;1.70;;
67819;SDS011;54618;52.018;5.576;2022-08-05T05:13:55;6.30;;;2.10;;
67819;SDS011;54618;52.018;5.576;2022-08-05T05:16:21;3.67;;;1.75;;
67819;SDS011;54618;52.018;5.576;2022-08-05T05:18:46;4.78;;;1.92;;
67819;SDS011;54618;52.018;5.576;2022-08-05T05:21:12;5.97;;;1.70;;
67819;SDS011;54618;52.018;5.576;2022-08-05T05:23:37;3.75;;;1.70;;
67819;SDS011;54618;52.018;5.576;2022-08-05T05:26:03;3.90;;;1.80;;
67819;SDS011;54618;52.018;5.576;2022-08-05T05:28:29;4.68;;;1.92;;
67819;SDS011;54618;52.018;5.576;2022-08-05T05:30:54;4.45;;;1.77;;
67819;SDS011;54618;52.018;5.576;2022-08-05T05:33:20;4.60;;;1.70;;
67819;SDS011;54618;52.018;5.576;2022-08-05T05:35:46;3.92;;;1.55;;
67819;SDS011;54618;52.018;5.576;2022-08-05T05:38:12;6.55;;;2.08;;
67819;SDS011;54618;52.018;5.576;2022-08-05T05:40:38;4.47;;;1.80;;
67819;SDS011;54618;52.018;5.576;2022-08-05T05:43:03;4.95;;;1.67;;
67819;SDS011;54618;52.018;5.576;2022-08-05T05:45:29;5.30;;;1.70;;
67819;SDS011;54618;52.018;5.576;2022-08-05T05:47:57;5.85;;;1.80;;
67819;SDS011;54618;52.018;5.576;2022-08-05T05:50:24;3.65;;;1.63;;
67819;SDS011;54618;52.018;5.576;2022-08-05T05:52:50;4.25;;;1.95;;
67819;SDS011;54618;52.018;5.576;2022-08-05T05:55:16;3.53;;;1.73;;
67819;SDS011;54618;52.018;5.576;2022-08-05T05:57:43;4.40;;;1.67;;
67819;SDS011;54618;52.018;5.576;2022-08-05T06:00:10;5.40;;;1.90;;
67819;SDS011;54618;52.018;5.576;2022-08-05T06:02:38;5.20;;;1.90;;
67819;SDS011;54618;52.018;5.576;2022-08-05T06:05:08;5.75;;;2.00;;
67819;SDS011;54618;52.018;5.576;2022-08-05T06:07:34;3.40;;;1.80;;
67819;SDS011;54618;52.018;5.576;2022-08-05T06:10:00;3.92;;;1.70;;
67819;SDS011;54618;52.018;5.576;2022-08-05T06:12:26;5.22;;;1.80;;
67819;SDS011;54618;52.018;5.576;2022-08-05T06:14:52;5.05;;;1.70;;
67819;SDS011;54618;52.018;5.576;2022-08-05T06:17:17;3.85;;;1.73;;
67819;SDS011;54618;52.018;5.576;2022-08-05T06:19:43;5.07;;;1.60;;
67819;SDS011;54618;52.018;5.576;2022-08-05T06:22:09;3.25;;;1.42;;
67819;SDS011;54618;52.018;5.576;2022-08-05T06:24:34;5.00;;;2.20;;
67819;SDS011;54618;52.018;5.576;2022-08-05T06:29:31;5.40;;;1.52;;
67819;SDS011;54618;52.018;5.576;2022-08-05T06:31:57;5.10;;;1.60;;
67819;SDS011;54618;52.018;5.576;2022-08-05T06:34:22;3.95;;;1.75;;
67819;SDS011;54618;52.018;5.576;2022-08-05T06:36:48;5.05;;;1.70;;
67819;SDS011;54618;52.018;5.576;2022-08-05T06:39:13;5.05;;;1.52;;
67819;SDS011;54618;52.018;5.576;2022-08-05T06:41:39;2.80;;;1.40;;
67819;SDS011;54618;52.018;5.576;2022-08-05T06:44:05;4.63;;;1.50;;
67819;SDS011;54618;52.018;5.576;2022-08-05T06:46:30;4.00;;;1.83;;
67819;SDS011;54618;52.018;5.576;2022-08-05T06:48:56;3.65;;;1.60;;
67819;SDS011;54618;52.018;5.576;2022-08-05T06:51:22;2.67;;;1.60;;
67819;SDS011;54618;52.018;5.576;2022-08-05T06:53:49;3.42;;;1.42;;
67819;SDS011;54618;52.018;5.576;2022-08-05T06:56:15;3.25;;;1.58;;
67819;SDS011;54618;52.018;5.576;2022-08-05T06:58:40;2.20;;;1.40;;
67819;SDS011;54618;52.018;5.576;2022-08-05T07:01:06;4.53;;;1.75;;
67819;SDS011;54618;52.018;5.576;2022-08-05T07:03:32;3.30;;;1.48;;
67819;SDS011;54618;52.018;5.576;2022-08-05T07:05:57;3.47;;;1.60;;
67819;SDS011;54618;52.018;5.576;2022-08-05T07:08:24;3.75;;;1.60;;
67819;SDS011;54618;52.018;5.576;2022-08-05T07:10:51;2.90;;;1.50;;
67819;SDS011;54618;52.018;5.576;2022-08-05T07:13:17;3.80;;;1.65;;
67819;SDS011;54618;52.018;5.576;2022-08-05T07:16:01;5.28;;;1.33;;
67819;SDS011;54618;52.018;5.576;2022-08-05T07:18:45;3.33;;;1.60;;
67819;SDS011;54618;52.018;5.576;2022-08-05T07:21:10;3.30;;;1.75;;
67819;SDS011;54618;52.018;5.576;2022-08-05T07:23:36;4.05;;;1.60;;
67819;SDS011;54618;52.018;5.576;2022-08-05T07:26:02;3.60;;;1.58;;
67819;SDS011;54618;52.018;5.576;2022-08-05T07:28:28;2.75;;;1.48;;
67819;SDS011;54618;52.018;5.576;2022-08-05T07:30:54;4.10;;;1.70;;
67819;SDS011;54618;52.018;5.576;2022-08-05T07:33:20;3.28;;;1.50;;
67819;SDS011;54618;52.018;5.576;2022-08-05T07:35:46;3.83;;;2.00;;
67819;SDS011;54618;52.018;5.576;2022-08-05T07:38:13;2.40;;;1.30;;
67819;SDS011;54618;52.018;5.576;2022-08-05T07:40:39;5.18;;;1.88;;
67819;SDS011;54618;52.018;5.576;2022-08-05T07:43:05;4.05;;;1.48;;
67819;SDS011;54618;52.018;5.576;2022-08-05T07:45:31;3.20;;;1.60;;
67819;SDS011;54618;52.018;5.576;2022-08-05T07:47:56;3.08;;;1.75;;
67819;SDS011;54618;52.018;5.576;2022-08-05T07:50:22;2.83;;;1.65;;
67819;SDS011;54618;52.018;5.576;2022-08-05T07:52:48;5.97;;;1.83;;
67819;SDS011;54618;52.018;5.576;2022-08-05T07:55:14;3.13;;;1.42;;
67819;SDS011;54618;52.018;5.576;2022-08-05T07:57:39;4.05;;;1.80;;
67819;SDS011;54618;52.018;5.576;2022-08-05T08:00:05;3.92;;;1.63;;
67819;SDS011;54618;52.018;5.576;2022-08-05T08:02:32;3.55;;;1.52;;
67819;SDS011;54618;52.018;5.576;2022-08-05T08:04:58;3.75;;;1.67;;
67819;SDS011;54618;52.018;5.576;2022-08-05T08:07:24;3.95;;;1.65;;
67819;SDS011;54618;52.018;5.576;2022-08-05T08:09:51;3.53;;;1.52;;
67819;SDS011;54618;52.018;5.576;2022-08-05T08:12:17;5.03;;;1.58;;
67819;SDS011;54618;52.018;5.576;2022-08-05T08:14:43;6.88;;;1.48;;
67819;SDS011;54618;52.018;5.576;2022-08-05T08:17:09;4.00;;;1.65;;
67819;SDS011;54618;52.018;5.576;2022-08-05T08:19:36;4.10;;;1.45;;
67819;SDS011;54618;52.018;5.576;2022-08-05T08:22:02;2.85;;;1.27;;
67819;SDS011;54618;52.018;5.576;2022-08-05T08:24:28;3.00;;;1.38;;
67819;SDS011;54618;52.018;5.576;2022-08-05T08:26:54;3.47;;;1.50;;
67819;SDS011;54618;52.018;5.576;2022-08-05T08:29:20;2.78;;;1.38;;
67819;SDS011;54618;52.018;5.576;2022-08-05T08:31:46;2.28;;;1.30;;
67819;SDS011;54618;52.018;5.576;2022-08-05T08:34:11;2.40;;;1.30;;
67819;SDS011;54618;52.018;5.576;2022-08-05T08:36:37;2.55;;;1.30;;
67819;SDS011;54618;52.018;5.576;2022-08-05T08:39:03;2.70;;;1.42;;
67819;SDS011;54618;52.018;5.576;2022-08-05T08:41:28;3.20;;;1.27;;
67819;SDS011;54618;52.018;5.576;2022-08-05T08:43:57;2.78;;;1.30;;
67819;SDS011;54618;52.018;5.576;2022-08-05T08:46:27;2.85;;;1.30;;
67819;SDS011;54618;52.018;5.576;2022-08-05T08:48:58;3.22;;;1.40;;
67819;SDS011;54618;52.018;5.576;2022-08-05T08:51:26;3.10;;;1.60;;
67819;SDS011;54618;52.018;5.576;2022-08-05T08:53:55;1.80;;;1.25;;
67819;SDS011;54618;52.018;5.576;2022-08-05T08:56:21;2.15;;;1.50;;
67819;SDS011;54618;52.018;5.576;2022-08-05T08:58:47;3.80;;;1.45;;
67819;SDS011;54618;52.018;5.576;2022-08-05T09:01:13;3.53;;;1.30;;
67819;SDS011;54618;52.018;5.576;2022-08-05T09:03:39;3.65;;;1.50;;
67819;SDS011;54618;52.018;5.576;2022-08-05T09:06:05;4.07;;;1.25;;
67819;SDS011;54618;52.018;5.576;2022-08-05T09:08:31;3.45;;;1.30;;
67819;SDS011;54618;52.018;5.576;2022-08-05T09:10:57;2.88;;;1.20;;
67819;SDS011;54618;52.018;5.576;2022-08-05T09:13:23;2.70;;;1.50;;
67819;SDS011;54618;52.018;5.576;2022-08-05T09:15:50;2.33;;;1.20;;
67819;SDS011;54618;52.018;5.576;2022-08-05T09:18:16;2.15;;;1.30;;
67819;SDS011;54618;52.018;5.576;2022-08-05T09:20:42;3.38;;;1.38;;
67819;SDS011;54618;52.018;5.576;2022-08-05T09:23:16;2.70;;;1.38;;
67819;SDS011;54618;52.018;5.576;2022-08-05T09:25:44;2.88;;;1.30;;
67819;SDS011;54618;52.018;5.576;2022-08-05T09:28:21;3.10;;;1.10;;
67819;SDS011;54618;52.018;5.576;2022-08-05T09:30:55;2.65;;;1.33;;
67819;SDS011;54618;52.018;5.576;2022-08-05T09:33:24;3.28;;;1.38;;
67819;SDS011;54618;52.018;5.576;2022-08-05T09:36:00;2.17;;;1.00;;
67819;SDS011;54618;52.018;5.576;2022-08-05T09:38:28;2.97;;;1.20;;
67819;SDS011;54618;52.018;5.576;2022-08-05T09:41:01;2.33;;;1.30;;
67819;SDS011;54618;52.018;5.576;2022-08-05T09:43:35;3.90;;;1.30;;
67819;SDS011;54618;52.018;5.576;2022-08-05T09:46:03;2.53;;;1.20;;
67819;SDS011;54618;52.018;5.576;2022-08-05T09:48:34;3.78;;;1.30;;
67819;SDS011;54618;52.018;5.576;2022-08-05T09:51:03;1.42;;;0.93;;
67819;SDS011;54618;52.018;5.576;2022-08-05T09:53:45;2.88;;;1.20;;
67819;SDS011;54618;52.018;5.576;2022-08-05T09:56:11;2.45;;;1.30;;
67819;SDS011;54618;52.018;5.576;2022-08-05T09:58:37;2.53;;;1.10;;
67819;SDS011;54618;52.018;5.576;2022-08-05T10:01:03;2.90;;;1.20;;
67819;SDS011;54618;52.018;5.576;2022-08-05T10:03:31;1.88;;;1.20;;
67819;SDS011;54618;52.018;5.576;2022-08-05T10:06:04;3.72;;;1.05;;
67819;SDS011;54618;52.018;5.576;2022-08-05T10:08:32;2.88;;;1.20;;
67819;SDS011;54618;52.018;5.576;2022-08-05T10:10:59;2.15;;;1.10;;
67819;SDS011;54618;52.018;5.576;2022-08-05T10:13:33;2.15;;;1.00;;
67819;SDS011;54618;52.018;5.576;2022-08-05T10:16:00;2.80;;;1.00;;
67819;SDS011;54618;52.018;5.576;2022-08-05T10:18:27;1.60;;;0.98;;
67819;SDS011;54618;52.018;5.576;2022-08-05T10:21:04;2.47;;;1.10;;
67819;SDS011;54618;52.018;5.576;2022-08-05T10:23:34;1.98;;;1.08;;
67819;SDS011;54618;52.018;5.576;2022-08-05T10:26:05;3.47;;;1.00;;
67819;SDS011;54618;52.018;5.576;2022-08-05T10:28:32;3.65;;;1.10;;
67819;SDS011;54618;52.018;5.576;2022-08-05T10:30:59;2.92;;;1.00;;
67819;SDS011;54618;52.018;5.576;2022-08-05T10:33:27;2.67;;;0.90;;
67819;SDS011;54618;52.018;5.576;2022-08-05T10:35:55;2.20;;;0.90;;
67819;SDS011;54618;52.018;5.576;2022-08-05T10:38:22;2.63;;;0.90;;
67819;SDS011;54618;52.018;5.576;2022-08-05T10:40:51;1.85;;;1.00;;
67819;SDS011;54618;52.018;5.576;2022-08-05T10:46:05;1.88;;;0.98;;
67819;SDS011;54618;52.018;5.576;2022-08-05T10:48:35;2.55;;;1.10;;
67819;SDS011;54618;52.018;5.576;2022-08-05T10:51:08;1.77;;;0.98;;
67819;SDS011;54618;52.018;5.576;2022-08-05T10:53:40;2.25;;;1.00;;
67819;SDS011;54618;52.018;5.576;2022-08-05T10:56:23;3.28;;;1.20;;
67819;SDS011;54618;52.018;5.576;2022-08-05T11:01:32;1.60;;;0.90;;
67819;SDS011;54618;52.018;5.576;2022-08-05T11:06:31;3.90;;;0.85;;
67819;SDS011;54618;52.018;5.576;2022-08-05T11:11:44;3.17;;;1.10;;
67819;SDS011;54618;52.018;5.576;2022-08-05T11:14:11;1.60;;;0.93;;
67819;SDS011;54618;52.018;5.576;2022-08-05T11:16:37;2.67;;;1.00;;
67819;SDS011;54618;52.018;5.576;2022-08-05T11:21:47;3.13;;;1.00;;
67819;SDS011;54618;52.018;5.576;2022-08-05T11:24:13;1.80;;;0.88;;
67819;SDS011;54618;52.018;5.576;2022-08-05T11:26:39;1.85;;;0.90;;
67819;SDS011;54618;52.018;5.576;2022-08-05T11:29:04;1.80;;;1.05;;
67819;SDS011;54618;52.018;5.576;2022-08-05T11:31:30;2.20;;;0.90;;
67819;SDS011;54618;52.018;5.576;2022-08-05T11:34:00;3.47;;;1.00;;
67819;SDS011;54618;52.018;5.576;2022-08-05T11:36:38;1.80;;;0.90;;
67819;SDS011;54618;52.018;5.576;2022-08-05T11:39:05;2.53;;;1.00;;
67819;SDS011;54618;52.018;5.576;2022-08-05T11:41:32;4.30;;;1.10;;
67819;SDS011;54618;52.018;5.576;2022-08-05T11:44:03;3.67;;;1.00;;
67819;SDS011;54618;52.018;5.576;2022-08-05T11:49:17;1.85;;;0.90;;
67819;SDS011;54618;52.018;5.576;2022-08-05T11:51:44;2.05;;;1.00;;
67819;SDS011;54618;52.018;5.576;2022-08-05T11:54:11;1.55;;;0.85;;
67819;SDS011;54618;52.018;5.576;2022-08-05T11:56:44;2.53;;;1.02;;
67819;SDS011;54618;52.018;5.576;2022-08-05T11:59:14;1.15;;;0.70;;
67819;SDS011;54618;52.018;5.576;2022-08-05T12:02:01;3.22;;;0.90;;
67819;SDS011;54618;52.018;5.576;2022-08-05T12:04:45;1.40;;;0.85;;
67819;SDS011;54618;52.018;5.576;2022-08-05T12:07:13;2.13;;;0.80;;
67819;SDS011;54618;52.018;5.576;2022-08-05T12:09:47;2.08;;;0.98;;
67819;SDS011;54618;52.018;5.576;2022-08-05T12:12:21;1.50;;;0.80;;
67819;SDS011;54618;52.018;5.576;2022-08-05T12:14:47;0.98;;;0.70;;
67819;SDS011;54618;52.018;5.576;2022-08-05T12:17:14;2.17;;;0.90;;
67819;SDS011;54618;52.018;5.576;2022-08-05T12:22:06;1.33;;;0.80;;
67819;SDS011;54618;52.018;5.576;2022-08-05T12:24:31;1.85;;;0.85;;
67819;SDS011;54618;52.018;5.576;2022-08-05T12:26:57;2.00;;;0.70;;
67819;SDS011;54618;52.018;5.576;2022-08-05T12:29:24;1.20;;;0.73;;
67819;SDS011;54618;52.018;5.576;2022-08-05T12:31:55;1.73;;;0.80;;
67819;SDS011;54618;52.018;5.576;2022-08-05T12:34:26;1.15;;;0.80;;
67819;SDS011;54618;52.018;5.576;2022-08-05T12:36:59;1.48;;;0.85;;
67819;SDS011;54618;52.018;5.576;2022-08-05T12:39:34;1.00;;;0.70;;
67819;SDS011;54618;52.018;5.576;2022-08-05T12:42:01;1.25;;;0.70;;
67819;SDS011;54618;52.018;5.576;2022-08-05T12:44:27;2.03;;;0.80;;
67819;SDS011;54618;52.018;5.576;2022-08-05T12:46:53;2.45;;;1.00;;
67819;SDS011;54618;52.018;5.576;2022-08-05T12:49:20;2.17;;;0.80;;
67819;SDS011;54618;52.018;5.576;2022-08-05T12:51:47;1.02;;;0.70;;
67819;SDS011;54618;52.018;5.576;2022-08-05T12:54:18;1.95;;;0.70;;
67819;SDS011;54618;52.018;5.576;2022-08-05T12:59:23;1.30;;;0.80;;
67819;SDS011;54618;52.018;5.576;2022-08-05T13:01:57;1.27;;;0.70;;
67819;SDS011;54618;52.018;5.576;2022-08-05T13:04:31;2.22;;;0.70;;
67819;SDS011;54618;52.018;5.576;2022-08-05T13:07:02;1.40;;;0.60;;
67819;SDS011;54618;52.018;5.576;2022-08-05T13:09:29;2.15;;;0.88;;
67819;SDS011;54618;52.018;5.576;2022-08-05T13:12:02;0.93;;;0.70;;
67819;SDS011;54618;52.018;5.576;2022-08-05T13:14:36;1.88;;;0.80;;
67819;SDS011;54618;52.018;5.576;2022-08-05T13:17:07;0.90;;;0.68;;
67819;SDS011;54618;52.018;5.576;2022-08-05T13:19:39;1.60;;;0.90;;
67819;SDS011;54618;52.018;5.576;2022-08-05T13:22:05;1.15;;;0.70;;
67819;SDS011;54618;52.018;5.576;2022-08-05T13:24:31;1.95;;;0.80;;
67819;SDS011;54618;52.018;5.576;2022-08-05T13:26:56;2.10;;;0.75;;
67819;SDS011;54618;52.018;5.576;2022-08-05T13:29:22;2.42;;;0.85;;
67819;SDS011;54618;52.018;5.576;2022-08-05T13:31:47;1.77;;;0.80;;
67819;SDS011;54618;52.018;5.576;2022-08-05T13:34:13;1.05;;;0.70;;
67819;SDS011;54618;52.018;5.576;2022-08-05T13:36:39;2.05;;;0.85;;
67819;SDS011;54618;52.018;5.576;2022-08-05T13:39:06;2.72;;;0.70;;
67819;SDS011;54618;52.018;5.576;2022-08-05T13:41:32;0.77;;;0.70;;
67819;SDS011;54618;52.018;5.576;2022-08-05T13:43:58;1.35;;;0.70;;
67819;SDS011;54618;52.018;5.576;2022-08-05T13:46:25;3.20;;;0.80;;
67819;SDS011;54618;52.018;5.576;2022-08-05T13:48:51;1.10;;;0.80;;
67819;SDS011;54618;52.018;5.576;2022-08-05T13:51:24;1.20;;;0.70;;
67819;SDS011;54618;52.018;5.576;2022-08-05T13:53:57;1.30;;;0.80;;
67819;SDS011;54618;52.018;5.576;2022-08-05T13:56:23;1.75;;;0.77;;
67819;SDS011;54618;52.018;5.576;2022-08-05T13:58:50;1.10;;;0.70;;
67819;SDS011;54618;52.018;5.576;2022-08-05T14:01:16;1.40;;;0.80;;
67819;SDS011;54618;52.018;5.576;2022-08-05T14:03:41;1.50;;;0.77;;
67819;SDS011;54618;52.018;5.576;2022-08-05T14:06:07;1.15;;;0.70;;
67819;SDS011;54618;52.018;5.576;2022-08-05T14:08:32;2.33;;;0.80;;
67819;SDS011;54618;52.018;5.576;2022-08-05T14:10:58;1.35;;;0.70;;
67819;SDS011;54618;52.018;5.576;2022-08-05T14:13:24;1.45;;;0.70;;
67819;SDS011;54618;52.018;5.576;2022-08-05T14:15:51;3.47;;;0.77;;
67819;SDS011;54618;52.018;5.576;2022-08-05T14:18:16;2.15;;;0.70;;
67819;SDS011;54618;52.018;5.576;2022-08-05T14:20:42;1.90;;;0.80;;
67819;SDS011;54618;52.018;5.576;2022-08-05T14:23:07;0.60;;;0.60;;
67819;SDS011;54618;52.018;5.576;2022-08-05T14:25:33;1.45;;;0.70;;
67819;SDS011;54618;52.018;5.576;2022-08-05T14:27:58;4.68;;;0.80;;
67819;SDS011;54618;52.018;5.576;2022-08-05T14:30:24;2.05;;;0.75;;
67819;SDS011;54618;52.018;5.576;2022-08-05T14:32:50;2.13;;;0.77;;
67819;SDS011;54618;52.018;5.576;2022-08-05T14:35:16;1.63;;;0.70;;
67819;SDS011;54618;52.018;5.576;2022-08-05T14:37:41;1.25;;;0.70;;
67819;SDS011;54618;52.018;5.576;2022-08-05T14:40:07;1.08;;;0.70;;
67819;SDS011;54618;52.018;5.576;2022-08-05T14:42:33;1.65;;;0.80;;
67819;SDS011;54618;52.018;5.576;2022-08-05T14:44:59;1.92;;;0.90;;
67819;SDS011;54618;52.018;5.576;2022-08-05T14:47:25;1.40;;;0.80;;
67819;SDS011;54618;52.018;5.576;2022-08-05T14:49:51;0.82;;;0.70;;
67819;SDS011;54618;52.018;5.576;2022-08-05T14:52:17;1.77;;;0.73;;
67819;SDS011;54618;52.018;5.576;2022-08-05T14:54:43;1.95;;;0.90;;
67819;SDS011;54618;52.018;5.576;2022-08-05T14:57:09;1.10;;;0.80;;
67819;SDS011;54618;52.018;5.576;2022-08-05T14:59:34;1.40;;;0.75;;
67819;SDS011;54618;52.018;5.576;2022-08-05T15:02:00;1.67;;;0.85;;
67819;SDS011;54618;52.018;5.576;2022-08-05T15:04:26;1.20;;;0.60;;
67819;SDS011;54618;52.018;5.576;2022-08-05T15:06:52;2.38;;;0.80;;
67819;SDS011;54618;52.018;5.576;2022-08-05T15:09:17;1.27;;;0.80;;
67819;SDS011;54618;52.018;5.576;2022-08-05T15:11:44;1.33;;;0.75;;
67819;SDS011;54618;52.018;5.576;2022-08-05T15:14:09;1.63;;;0.70;;
67819;SDS011;54618;52.018;5.576;2022-08-05T15:16:35;0.75;;;0.60;;
67819;SDS011;54618;52.018;5.576;2022-08-05T15:19:00;1.15;;;0.70;;
67819;SDS011;54618;52.018;5.576;2022-08-05T15:21:26;1.98;;;0.80;;
67819;SDS011;54618;52.018;5.576;2022-08-05T15:23:52;1.23;;;0.68;;
67819;SDS011;54618;52.018;5.576;2022-08-05T15:26:17;2.17;;;0.90;;
67819;SDS011;54618;52.018;5.576;2022-08-05T15:28:44;3.13;;;0.68;;